sensor_id;sensor_type;location;lat;lon;timestamp;temperature;humidity
82126;DHT22;71668;51.400;6.758;2024-02-15T09:58:30;12.90;99.90
82126;DHT22;71668;51.400;6.758;2024-02-15T10:01:03;13.30;99.90
82126;DHT22;71668;51.400;6.758;2024-02-15T10:03:38;13.50;99.90
82126;DHT22;71668;51.400;6.758;2024-02-15T10:06:09;13.80;99.90
82126;DHT22;71668;51.400;6.758;2024-02-15T10:08:37;13.90;99.90
82126;DHT22;71668;51.400;6.758;2024-02-15T10:11:06;14.10;99.90
82126;DHT22;71668;51.400;6.758;2024-02-15T10:13:35;14.20;99.90
82126;DHT22;71668;51.400;6.758;2024-02-15T10:16:16;14.30;99.90
82126;DHT22;71668;51.400;6.758;2024-02-15T10:18:45;14.10;99.90
82126;DHT22;71668;51.400;6.758;2024-02-15T10:21:26;13.90;99.90
82126;DHT22;71668;51.400;6.758;2024-02-15T10:24:08;13.90;99.90
82126;DHT22;71668;51.400;6.758;2024-02-15T10:26:36;13.80;99.90
82126;DHT22;71668;51.400;6.758;2024-02-15T10:31:39;13.70;99.90
82126;DHT22;71668;51.400;6.758;2024-02-15T10:34:08;13.70;99.90
82126;DHT22;71668;51.400;6.758;2024-02-15T10:36:35;13.70;99.90
82126;DHT22;71668;51.400;6.758;2024-02-15T10:39:13;13.70;99.90
82126;DHT22;71668;51.400;6.758;2024-02-15T10:41:45;13.70;99.90
82126;DHT22;71668;51.400;6.758;2024-02-15T10:44:19;13.70;99.90
82126;DHT22;71668;51.400;6.758;2024-02-15T10:46:47;13.70;99.90
82126;DHT22;71668;51.400;6.758;2024-02-15T10:49:26;13.70;99.90
82126;DHT22;71668;51.400;6.758;2024-02-15T10:51:59;13.80;99.90
82126;DHT22;71668;51.400;6.758;2024-02-15T10:54:52;13.80;99.90
82126;DHT22;71668;51.400;6.758;2024-02-15T10:57:26;13.80;99.90
82126;DHT22;71668;51.400;6.758;2024-02-15T10:59:56;13.80;99.90
82126;DHT22;71668;51.400;6.758;2024-02-15T11:02:33;13.90;99.90
82126;DHT22;71668;51.400;6.758;2024-02-15T11:05:06;13.90;99.90
82126;DHT22;71668;51.400;6.758;2024-02-15T11:07:37;13.90;99.90
82126;DHT22;71668;51.400;6.758;2024-02-15T11:10:05;14.00;99.90
82126;DHT22;71668;51.400;6.758;2024-02-15T11:12:38;14.10;99.90
82126;DHT22;71668;51.400;6.758;2024-02-15T11:15:07;14.20;99.90
82126;DHT22;71668;51.400;6.758;2024-02-15T11:20:06;14.50;99.90
82126;DHT22;71668;51.400;6.758;2024-02-15T11:22:36;14.50;99.90
82126;DHT22;71668;51.400;6.758;2024-02-15T11:25:07;14.60;99.90
82126;DHT22;71668;51.400;6.758;2024-02-15T11:27:39;14.50;99.90
82126;DHT22;71668;51.400;6.758;2024-02-15T11:30:08;14.60;99.90
82126;DHT22;71668;51.400;6.758;2024-02-15T11:32:47;14.60;99.90
82126;DHT22;71668;51.400;6.758;2024-02-15T11:35:23;14.70;99.90
82126;DHT22;71668;51.400;6.758;2024-02-15T11:37:53;14.70;99.90
82126;DHT22;71668;51.400;6.758;2024-02-15T11:40:27;14.70;99.90
82126;DHT22;71668;51.400;6.758;2024-02-15T11:42:58;14.70;99.90
82126;DHT22;71668;51.400;6.758;2024-02-15T11:45:29;14.70;99.90
82126;DHT22;71668;51.400;6.758;2024-02-15T11:48:08;14.80;99.90
82126;DHT22;71668;51.400;6.758;2024-02-15T11:50:39;14.80;99.90
82126;DHT22;71668;51.400;6.758;2024-02-15T11:53:07;14.90;99.90
82126;DHT22;71668;51.400;6.758;2024-02-15T11:55:40;14.90;99.90
82126;DHT22;71668;51.400;6.758;2024-02-15T11:58:09;15.00;99.90
82126;DHT22;71668;51.400;6.758;2024-02-15T12:00:37;15.10;99.90
82126;DHT22;71668;51.400;6.758;2024-02-15T12:03:24;15.10;99.90
82126;DHT22;71668;51.400;6.758;2024-02-15T12:06:27;15.10;99.90
82126;DHT22;71668;51.400;6.758;2024-02-15T12:09:17;15.20;99.90
82126;DHT22;71668;51.400;6.758;2024-02-15T12:12:20;15.20;99.90
82126;DHT22;71668;51.400;6.758;2024-02-15T12:15:06;15.20;99.90
82126;DHT22;71668;51.400;6.758;2024-02-15T12:17:51;15.20;99.90
82126;DHT22;71668;51.400;6.758;2024-02-15T12:20:37;15.20;99.90
82126;DHT22;71668;51.400;6.758;2024-02-15T12:23:04;15.30;99.90
82126;DHT22;71668;51.400;6.758;2024-02-15T12:25:33;15.30;99.90
82126;DHT22;71668;51.400;6.758;2024-02-15T12:28:01;15.40;99.90
82126;DHT22;71668;51.400;6.758;2024-02-15T12:30:35;15.40;99.90
82126;DHT22;71668;51.400;6.758;2024-02-15T12:33:13;15.40;99.90
82126;DHT22;71668;51.400;6.758;2024-02-15T12:35:46;15.50;99.90
82126;DHT22;71668;51.400;6.758;2024-02-15T12:38:14;15.60;99.90
82126;DHT22;71668;51.400;6.758;2024-02-15T12:40:45;15.60;99.90
82126;DHT22;71668;51.400;6.758;2024-02-15T12:43:14;15.60;99.90
82126;DHT22;71668;51.400;6.758;2024-02-15T12:45:42;15.70;99.90
82126;DHT22;71668;51.400;6.758;2024-02-15T12:48:09;15.70;99.90
82126;DHT22;71668;51.400;6.758;2024-02-15T12:50:38;15.80;99.90
82126;DHT22;71668;51.400;6.758;2024-02-15T12:53:08;15.90;99.90
82126;DHT22;71668;51.400;6.758;2024-02-15T12:55:36;15.90;99.90
82126;DHT22;71668;51.400;6.758;2024-02-15T12:58:13;15.80;99.90
82126;DHT22;71668;51.400;6.758;2024-02-15T13:00:40;15.80;99.90
82126;DHT22;71668;51.400;6.758;2024-02-15T13:03:09;15.90;99.90
82126;DHT22;71668;51.400;6.758;2024-02-15T13:05:38;15.90;99.90
82126;DHT22;71668;51.400;6.758;2024-02-15T13:08:07;15.90;99.90
82126;DHT22;71668;51.400;6.758;2024-02-15T13:10:40;15.90;99.90
82126;DHT22;71668;51.400;6.758;2024-02-15T13:13:07;15.90;99.90
82126;DHT22;71668;51.400;6.758;2024-02-15T13:15:36;15.90;99.90
82126;DHT22;71668;51.400;6.758;2024-02-15T13:18:04;15.90;99.90
82126;DHT22;71668;51.400;6.758;2024-02-15T13:20:32;16.00;99.90
82126;DHT22;71668;51.400;6.758;2024-02-15T13:23:02;15.90;99.90
82126;DHT22;71668;51.400;6.758;2024-02-15T13:25:38;15.90;99.90
82126;DHT22;71668;51.400;6.758;2024-02-15T13:28:10;16.00;99.90
82126;DHT22;71668;51.400;6.758;2024-02-15T13:30:38;16.00;99.90
82126;DHT22;71668;51.400;6.758;2024-02-15T13:33:05;16.00;99.90
82126;DHT22;71668;51.400;6.758;2024-02-15T13:35:33;16.00;99.90
82126;DHT22;71668;51.400;6.758;2024-02-15T13:38:00;16.00;99.90
82126;DHT22;71668;51.400;6.758;2024-02-15T13:40:28;16.00;99.90
82126;DHT22;71668;51.400;6.758;2024-02-15T13:43:00;16.00;99.90
82126;DHT22;71668;51.400;6.758;2024-02-15T13:48:07;16.10;99.90
82126;DHT22;71668;51.400;6.758;2024-02-15T13:50:34;16.10;99.90
82126;DHT22;71668;51.400;6.758;2024-02-15T13:53:03;16.10;99.90
82126;DHT22;71668;51.400;6.758;2024-02-15T13:55:30;16.10;99.90
82126;DHT22;71668;51.400;6.758;2024-02-15T13:57:57;16.10;99.90
82126;DHT22;71668;51.400;6.758;2024-02-15T14:00:26;16.20;99.90
82126;DHT22;71668;51.400;6.758;2024-02-15T14:03:03;16.20;99.90
82126;DHT22;71668;51.400;6.758;2024-02-15T14:05:33;16.20;99.90
82126;DHT22;71668;51.400;6.758;2024-02-15T14:08:02;16.30;99.90
82126;DHT22;71668;51.400;6.758;2024-02-15T14:10:31;16.30;99.90
82126;DHT22;71668;51.400;6.758;2024-02-15T14:13:00;16.30;99.90
82126;DHT22;71668;51.400;6.758;2024-02-15T14:15:30;16.40;99.90
82126;DHT22;71668;51.400;6.758;2024-02-15T14:18:00;16.40;99.90
82126;DHT22;71668;51.400;6.758;2024-02-15T14:20:28;16.40;99.90
82126;DHT22;71668;51.400;6.758;2024-02-15T14:22:55;16.50;99.90
82126;DHT22;71668;51.400;6.758;2024-02-15T14:25:25;16.50;99.90
82126;DHT22;71668;51.400;6.758;2024-02-15T14:27:56;16.40;99.90
82126;DHT22;71668;51.400;6.758;2024-02-15T14:30:24;16.40;99.90
82126;DHT22;71668;51.400;6.758;2024-02-15T14:33:10;16.40;99.90
82126;DHT22;71668;51.400;6.758;2024-02-15T14:35:49;16.50;99.90
82126;DHT22;71668;51.400;6.758;2024-02-15T14:38:16;16.50;99.90
82126;DHT22;71668;51.400;6.758;2024-02-15T14:40:48;16.40;99.90
82126;DHT22;71668;51.400;6.758;2024-02-15T14:43:26;16.40;99.90
82126;DHT22;71668;51.400;6.758;2024-02-15T14:45:54;16.40;99.90
82126;DHT22;71668;51.400;6.758;2024-02-15T14:48:23;16.40;99.90
82126;DHT22;71668;51.400;6.758;2024-02-15T14:50:51;16.40;99.90
82126;DHT22;71668;51.400;6.758;2024-02-15T14:53:19;16.40;99.90
82126;DHT22;71668;51.400;6.758;2024-02-15T14:55:46;16.30;99.90
82126;DHT22;71668;51.400;6.758;2024-02-15T14:58:14;16.30;99.90
82126;DHT22;71668;51.400;6.758;2024-02-15T15:00:44;16.30;99.90
82126;DHT22;71668;51.400;6.758;2024-02-15T15:03:13;16.30;99.90
82126;DHT22;71668;51.400;6.758;2024-02-15T15:05:41;16.20;99.90
82126;DHT22;71668;51.400;6.758;2024-02-15T15:08:27;16.20;99.90
82126;DHT22;71668;51.400;6.758;2024-02-15T15:11:13;16.20;99.90
82126;DHT22;71668;51.400;6.758;2024-02-15T15:13:59;16.20;99.90
82126;DHT22;71668;51.400;6.758;2024-02-15T15:16:26;16.20;99.90
82126;DHT22;71668;51.400;6.758;2024-02-15T15:18:54;16.20;99.90
82126;DHT22;71668;51.400;6.758;2024-02-15T15:21:22;16.20;99.90
82126;DHT22;71668;51.400;6.758;2024-02-15T15:23:50;16.20;99.90
82126;DHT22;71668;51.400;6.758;2024-02-15T15:26:20;16.10;99.90
82126;DHT22;71668;51.400;6.758;2024-02-15T15:28:48;16.10;99.90
82126;DHT22;71668;51.400;6.758;2024-02-15T15:31:15;16.10;99.90
82126;DHT22;71668;51.400;6.758;2024-02-15T15:33:43;16.10;99.90
82126;DHT22;71668;51.400;6.758;2024-02-15T15:36:10;16.10;99.90
82126;DHT22;71668;51.400;6.758;2024-02-15T15:38:38;16.10;99.90
82126;DHT22;71668;51.400;6.758;2024-02-15T15:41:07;16.10;99.90
82126;DHT22;71668;51.400;6.758;2024-02-15T15:43:36;16.10;99.90
82126;DHT22;71668;51.400;6.758;2024-02-15T15:46:04;16.10;99.90
82126;DHT22;71668;51.400;6.758;2024-02-15T15:48:32;16.00;99.90
82126;DHT22;71668;51.400;6.758;2024-02-15T15:51:00;16.00;99.90
82126;DHT22;71668;51.400;6.758;2024-02-15T15:53:32;16.00;99.90
82126;DHT22;71668;51.400;6.758;2024-02-15T15:56:00;16.00;99.90
82126;DHT22;71668;51.400;6.758;2024-02-15T15:58:28;16.00;99.90
82126;DHT22;71668;51.400;6.758;2024-02-15T16:00:56;16.00;99.90
82126;DHT22;71668;51.400;6.758;2024-02-15T16:03:26;15.90;99.90
82126;DHT22;71668;51.400;6.758;2024-02-15T16:05:58;15.90;99.90
82126;DHT22;71668;51.400;6.758;2024-02-15T16:08:25;15.90;99.90
82126;DHT22;71668;51.400;6.758;2024-02-15T16:10:54;15.90;99.90
82126;DHT22;71668;51.400;6.758;2024-02-15T16:13:23;15.90;99.90
82126;DHT22;71668;51.400;6.758;2024-02-15T16:15:53;15.90;99.90
82126;DHT22;71668;51.400;6.758;2024-02-15T16:18:21;15.90;99.90
82126;DHT22;71668;51.400;6.758;2024-02-15T16:20:48;15.90;99.90
82126;DHT22;71668;51.400;6.758;2024-02-15T16:23:20;15.90;99.90
82126;DHT22;71668;51.400;6.758;2024-02-15T16:26:05;15.80;99.90
82126;DHT22;71668;51.400;6.758;2024-02-15T16:28:44;15.90;99.90
82126;DHT22;71668;51.400;6.758;2024-02-15T16:31:13;15.80;99.90
82126;DHT22;71668;51.400;6.758;2024-02-15T16:33:40;15.80;99.90
82126;DHT22;71668;51.400;6.758;2024-02-15T16:36:08;15.80;99.90
82126;DHT22;71668;51.400;6.758;2024-02-15T16:38:35;15.70;99.90
82126;DHT22;71668;51.400;6.758;2024-02-15T16:41:03;15.70;99.90
82126;DHT22;71668;51.400;6.758;2024-02-15T16:43:30;15.70;99.90
82126;DHT22;71668;51.400;6.758;2024-02-15T16:45:58;15.60;99.90
82126;DHT22;71668;51.400;6.758;2024-02-15T16:48:25;15.70;99.90
82126;DHT22;71668;51.400;6.758;2024-02-15T16:50:52;15.70;99.90
82126;DHT22;71668;51.400;6.758;2024-02-15T16:53:19;15.70;99.90
82126;DHT22;71668;51.400;6.758;2024-02-15T16:55:45;15.70;99.90
82126;DHT22;71668;51.400;6.758;2024-02-15T16:58:12;15.60;99.90
82126;DHT22;71668;51.400;6.758;2024-02-15T17:00:39;15.60;99.90
82126;DHT22;71668;51.400;6.758;2024-02-15T17:03:06;15.50;99.90
82126;DHT22;71668;51.400;6.758;2024-02-15T17:05:33;15.50;99.90
82126;DHT22;71668;51.400;6.758;2024-02-15T17:08:03;15.50;99.90
82126;DHT22;71668;51.400;6.758;2024-02-15T17:10:32;15.50;99.90
82126;DHT22;71668;51.400;6.758;2024-02-15T17:13:00;15.50;99.90
82126;DHT22;71668;51.400;6.758;2024-02-15T17:15:28;15.50;99.90
82126;DHT22;71668;51.400;6.758;2024-02-15T17:17:55;15.50;99.90
82126;DHT22;71668;51.400;6.758;2024-02-15T17:20:23;15.50;99.90
82126;DHT22;71668;51.400;6.758;2024-02-15T17:22:51;15.40;99.90
82126;DHT22;71668;51.400;6.758;2024-02-15T17:25:19;15.40;99.90
82126;DHT22;71668;51.400;6.758;2024-02-15T17:27:51;15.30;99.90
82126;DHT22;71668;51.400;6.758;2024-02-15T17:30:19;15.30;99.90
82126;DHT22;71668;51.400;6.758;2024-02-15T17:32:46;15.30;99.90
82126;DHT22;71668;51.400;6.758;2024-02-15T17:35:14;15.30;99.90
82126;DHT22;71668;51.400;6.758;2024-02-15T17:37:44;15.20;99.90
82126;DHT22;71668;51.400;6.758;2024-02-15T17:40:11;15.20;99.90
82126;DHT22;71668;51.400;6.758;2024-02-15T17:42:40;15.20;99.90
82126;DHT22;71668;51.400;6.758;2024-02-15T17:45:08;15.20;99.90
82126;DHT22;71668;51.400;6.758;2024-02-15T17:47:39;15.10;99.90
82126;DHT22;71668;51.400;6.758;2024-02-15T17:50:07;15.10;99.90
82126;DHT22;71668;51.400;6.758;2024-02-15T17:52:38;15.10;99.90
82126;DHT22;71668;51.400;6.758;2024-02-15T17:55:06;15.10;99.90
82126;DHT22;71668;51.400;6.758;2024-02-15T17:57:42;15.10;99.90
82126;DHT22;71668;51.400;6.758;2024-02-15T18:00:12;15.10;99.90
82126;DHT22;71668;51.400;6.758;2024-02-15T18:02:42;15.00;99.90
82126;DHT22;71668;51.400;6.758;2024-02-15T18:05:18;15.10;99.90
82126;DHT22;71668;51.400;6.758;2024-02-15T18:07:46;15.00;99.90
82126;DHT22;71668;51.400;6.758;2024-02-15T18:10:13;15.00;99.90
82126;DHT22;71668;51.400;6.758;2024-02-15T18:12:42;15.00;99.90
82126;DHT22;71668;51.400;6.758;2024-02-15T18:15:09;15.00;99.90
82126;DHT22;71668;51.400;6.758;2024-02-15T18:17:51;15.00;99.90
82126;DHT22;71668;51.400;6.758;2024-02-15T18:20:20;15.00;99.90
82126;DHT22;71668;51.400;6.758;2024-02-15T18:22:49;15.00;99.90
82126;DHT22;71668;51.400;6.758;2024-02-15T18:25:17;14.90;99.90
82126;DHT22;71668;51.400;6.758;2024-02-15T18:27:44;14.90;99.90
82126;DHT22;71668;51.400;6.758;2024-02-15T18:30:14;15.00;99.90
82126;DHT22;71668;51.400;6.758;2024-02-15T18:32:44;14.90;99.90
82126;DHT22;71668;51.400;6.758;2024-02-15T18:35:11;14.90;99.90
82126;DHT22;71668;51.400;6.758;2024-02-15T18:37:44;14.90;99.90
82126;DHT22;71668;51.400;6.758;2024-02-15T18:40:14;14.90;99.90
82126;DHT22;71668;51.400;6.758;2024-02-15T18:42:53;14.90;99.90
82126;DHT22;71668;51.400;6.758;2024-02-15T18:45:23;14.90;99.90
82126;DHT22;71668;51.400;6.758;2024-02-15T18:47:50;14.90;99.90
82126;DHT22;71668;51.400;6.758;2024-02-15T18:50:18;14.80;99.90
82126;DHT22;71668;51.400;6.758;2024-02-15T18:52:51;14.80;99.90
82126;DHT22;71668;51.400;6.758;2024-02-15T18:55:23;14.80;99.90
82126;DHT22;71668;51.400;6.758;2024-02-15T18:57:56;14.80;99.90
82126;DHT22;71668;51.400;6.758;2024-02-15T19:00:25;14.70;99.90
82126;DHT22;71668;51.400;6.758;2024-02-15T19:03:05;14.70;99.90
82126;DHT22;71668;51.400;6.758;2024-02-15T19:05:32;14.70;99.90
82126;DHT22;71668;51.400;6.758;2024-02-15T19:07:59;14.70;99.90
82126;DHT22;71668;51.400;6.758;2024-02-15T19:10:30;14.70;99.90
82126;DHT22;71668;51.400;6.758;2024-02-15T19:12:56;14.60;99.90
82126;DHT22;71668;51.400;6.758;2024-02-15T19:15:23;14.70;99.90
82126;DHT22;71668;51.400;6.758;2024-02-15T19:17:51;14.60;99.90
82126;DHT22;71668;51.400;6.758;2024-02-15T19:20:19;14.60;99.90
82126;DHT22;71668;51.400;6.758;2024-02-15T19:22:46;14.60;99.90
82126;DHT22;71668;51.400;6.758;2024-02-15T19:25:13;14.60;99.90
82126;DHT22;71668;51.400;6.758;2024-02-15T19:27:47;14.60;99.90
82126;DHT22;71668;51.400;6.758;2024-02-15T19:30:15;14.50;99.90
82126;DHT22;71668;51.400;6.758;2024-02-15T19:32:46;14.50;99.90
82126;DHT22;71668;51.400;6.758;2024-02-15T19:35:13;14.50;99.90
82126;DHT22;71668;51.400;6.758;2024-02-15T19:37:40;14.50;99.90
82126;DHT22;71668;51.400;6.758;2024-02-15T19:40:08;14.50;99.90
82126;DHT22;71668;51.400;6.758;2024-02-15T19:42:39;14.50;99.90
82126;DHT22;71668;51.400;6.758;2024-02-15T19:45:07;14.40;99.90
82126;DHT22;71668;51.400;6.758;2024-02-15T19:47:34;14.50;99.90
82126;DHT22;71668;51.400;6.758;2024-02-15T19:50:02;14.40;99.90
82126;DHT22;71668;51.400;6.758;2024-02-15T19:52:30;14.40;99.90
82126;DHT22;71668;51.400;6.758;2024-02-15T19:54:57;14.40;99.90
82126;DHT22;71668;51.400;6.758;2024-02-15T19:57:25;14.40;99.90
82126;DHT22;71668;51.400;6.758;2024-02-15T19:59:52;14.40;99.90
82126;DHT22;71668;51.400;6.758;2024-02-15T20:02:20;14.40;99.90
82126;DHT22;71668;51.400;6.758;2024-02-15T20:04:47;14.40;99.90
82126;DHT22;71668;51.400;6.758;2024-02-15T20:07:14;14.40;99.90
82126;DHT22;71668;51.400;6.758;2024-02-15T20:09:43;14.40;99.90
82126;DHT22;71668;51.400;6.758;2024-02-15T20:12:14;14.30;99.90
82126;DHT22;71668;51.400;6.758;2024-02-15T20:14:41;14.30;99.90
82126;DHT22;71668;51.400;6.758;2024-02-15T20:17:08;14.30;99.90
82126;DHT22;71668;51.400;6.758;2024-02-15T20:19:40;14.30;99.90
82126;DHT22;71668;51.400;6.758;2024-02-15T20:22:07;14.30;99.90
82126;DHT22;71668;51.400;6.758;2024-02-15T20:24:34;14.30;99.90
82126;DHT22;71668;51.400;6.758;2024-02-15T20:27:07;14.20;99.90
82126;DHT22;71668;51.400;6.758;2024-02-15T20:29:36;14.20;99.90
82126;DHT22;71668;51.400;6.758;2024-02-15T20:32:11;14.30;99.90
82126;DHT22;71668;51.400;6.758;2024-02-15T20:34:40;14.20;99.90
82126;DHT22;71668;51.400;6.758;2024-02-15T20:37:07;14.20;99.90
82126;DHT22;71668;51.400;6.758;2024-02-15T20:39:34;14.20;99.90
82126;DHT22;71668;51.400;6.758;2024-02-15T20:42:05;14.20;99.90
82126;DHT22;71668;51.400;6.758;2024-02-15T20:44:32;14.20;99.90
82126;DHT22;71668;51.400;6.758;2024-02-15T20:47:03;14.20;99.90
82126;DHT22;71668;51.400;6.758;2024-02-15T20:49:36;14.20;99.90
82126;DHT22;71668;51.400;6.758;2024-02-15T20:52:03;14.20;99.90
82126;DHT22;71668;51.400;6.758;2024-02-15T20:54:30;14.20;99.90
82126;DHT22;71668;51.400;6.758;2024-02-15T20:57:02;14.20;99.90
82126;DHT22;71668;51.400;6.758;2024-02-15T20:59:29;14.10;99.90
82126;DHT22;71668;51.400;6.758;2024-02-15T21:01:59;14.10;99.90
82126;DHT22;71668;51.400;6.758;2024-02-15T21:04:27;14.10;99.90
82126;DHT22;71668;51.400;6.758;2024-02-15T21:06:56;14.10;99.90
82126;DHT22;71668;51.400;6.758;2024-02-15T21:09:23;14.20;99.90
82126;DHT22;71668;51.400;6.758;2024-02-15T21:11:50;14.10;99.90
82126;DHT22;71668;51.400;6.758;2024-02-15T21:14:20;14.10;99.90
82126;DHT22;71668;51.400;6.758;2024-02-15T21:16:49;14.10;99.90
82126;DHT22;71668;51.400;6.758;2024-02-15T21:19:16;14.10;99.90
82126;DHT22;71668;51.400;6.758;2024-02-15T21:21:45;14.10;99.90
82126;DHT22;71668;51.400;6.758;2024-02-15T21:24:12;14.00;99.90
82126;DHT22;71668;51.400;6.758;2024-02-15T21:27:05;14.00;99.90
82126;DHT22;71668;51.400;6.758;2024-02-15T21:29:41;14.00;99.90
82126;DHT22;71668;51.400;6.758;2024-02-15T21:32:11;14.00;99.90
82126;DHT22;71668;51.400;6.758;2024-02-15T21:34:51;13.90;99.90
82126;DHT22;71668;51.400;6.758;2024-02-15T21:37:39;14.00;99.90
82126;DHT22;71668;51.400;6.758;2024-02-15T21:40:12;13.90;99.90
82126;DHT22;71668;51.400;6.758;2024-02-15T21:43:22;13.90;99.90
82126;DHT22;71668;51.400;6.758;2024-02-15T21:45:54;13.90;99.90
82126;DHT22;71668;51.400;6.758;2024-02-15T21:48:39;13.90;99.90
82126;DHT22;71668;51.400;6.758;2024-02-15T21:51:10;13.80;99.90
82126;DHT22;71668;51.400;6.758;2024-02-15T21:53:37;13.80;99.90
82126;DHT22;71668;51.400;6.758;2024-02-15T21:56:10;13.90;99.90
82126;DHT22;71668;51.400;6.758;2024-02-15T21:58:41;13.90;99.90
82126;DHT22;71668;51.400;6.758;2024-02-15T22:01:08;13.90;99.90
82126;DHT22;71668;51.400;6.758;2024-02-15T22:03:36;13.80;99.90
82126;DHT22;71668;51.400;6.758;2024-02-15T22:06:03;13.80;99.90
82126;DHT22;71668;51.400;6.758;2024-02-15T22:08:30;13.80;99.90
82126;DHT22;71668;51.400;6.758;2024-02-15T22:10:57;13.80;99.90
82126;DHT22;71668;51.400;6.758;2024-02-15T22:13:24;13.80;99.90
82126;DHT22;71668;51.400;6.758;2024-02-15T22:15:51;13.80;99.90
82126;DHT22;71668;51.400;6.758;2024-02-15T22:18:18;13.80;99.90
82126;DHT22;71668;51.400;6.758;2024-02-15T22:20:45;13.80;99.90
82126;DHT22;71668;51.400;6.758;2024-02-15T22:23:13;13.80;99.90
82126;DHT22;71668;51.400;6.758;2024-02-15T22:25:39;13.80;99.90
82126;DHT22;71668;51.400;6.758;2024-02-15T22:28:06;13.80;99.90
82126;DHT22;71668;51.400;6.758;2024-02-15T22:30:33;13.80;99.90
82126;DHT22;71668;51.400;6.758;2024-02-15T22:33:00;13.80;99.90
82126;DHT22;71668;51.400;6.758;2024-02-15T22:35:28;13.80;99.90
82126;DHT22;71668;51.400;6.758;2024-02-15T22:37:54;13.80;99.90
82126;DHT22;71668;51.400;6.758;2024-02-15T22:40:21;13.80;99.90
82126;DHT22;71668;51.400;6.758;2024-02-15T22:42:48;13.80;99.90
82126;DHT22;71668;51.400;6.758;2024-02-15T22:45:15;13.70;99.90
82126;DHT22;71668;51.400;6.758;2024-02-15T22:47:42;13.80;99.90
82126;DHT22;71668;51.400;6.758;2024-02-15T22:50:10;13.80;99.90
82126;DHT22;71668;51.400;6.758;2024-02-15T22:52:37;13.80;99.90
82126;DHT22;71668;51.400;6.758;2024-02-15T22:55:05;13.80;99.90
82126;DHT22;71668;51.400;6.758;2024-02-15T22:57:32;13.70;99.90
82126;DHT22;71668;51.400;6.758;2024-02-15T22:59:59;13.70;99.90
82126;DHT22;71668;51.400;6.758;2024-02-15T23:02:29;13.70;99.90
82126;DHT22;71668;51.400;6.758;2024-02-15T23:04:56;13.70;99.90
82126;DHT22;71668;51.400;6.758;2024-02-15T23:07:26;13.70;99.90
82126;DHT22;71668;51.400;6.758;2024-02-15T23:09:53;13.70;99.90
82126;DHT22;71668;51.400;6.758;2024-02-15T23:12:20;13.70;99.90
82126;DHT22;71668;51.400;6.758;2024-02-15T23:14:47;13.70;99.90
82126;DHT22;71668;51.400;6.758;2024-02-15T23:17:14;13.70;99.90
82126;DHT22;71668;51.400;6.758;2024-02-15T23:19:41;13.70;99.90
82126;DHT22;71668;51.400;6.758;2024-02-15T23:22:08;13.70;99.90
82126;DHT22;71668;51.400;6.758;2024-02-15T23:24:36;13.80;99.90
82126;DHT22;71668;51.400;6.758;2024-02-15T23:27:03;13.80;99.90
82126;DHT22;71668;51.400;6.758;2024-02-15T23:29:32;13.80;99.90
82126;DHT22;71668;51.400;6.758;2024-02-15T23:31:58;13.70;99.90
82126;DHT22;71668;51.400;6.758;2024-02-15T23:34:25;13.70;99.90
82126;DHT22;71668;51.400;6.758;2024-02-15T23:36:52;13.70;99.90
82126;DHT22;71668;51.400;6.758;2024-02-15T23:39:38;13.80;99.90
82126;DHT22;71668;51.400;6.758;2024-02-15T23:42:24;13.70;99.90
82126;DHT22;71668;51.400;6.758;2024-02-15T23:44:51;13.80;99.90
82126;DHT22;71668;51.400;6.758;2024-02-15T23:47:18;13.80;99.90
82126;DHT22;71668;51.400;6.758;2024-02-15T23:49:45;13.70;99.90
82126;DHT22;71668;51.400;6.758;2024-02-15T23:52:12;13.80;99.90
82126;DHT22;71668;51.400;6.758;2024-02-15T23:54:39;13.80;99.90
82126;DHT22;71668;51.400;6.758;2024-02-15T23:57:25;13.80;99.90
82126;DHT22;71668;51.400;6.758;2024-02-15T23:59:52;13.80;99.90
